Terminal Aerodrome Forecast
Issued by NWS Brownsville, TX

Home | Current Version | Previous Version | Text Only | Print | Product List | Glossary On
Versions: 1 2 3 4 5 6 7 8 9 10 11 12 13 14 15 16 17 18 19 20 21
000
FTUS44 KBRO 230531
TAFBRO
TAF
KBRO 230531Z 2306/2406 13003KT P6SM SCT015 BKN100
      TEMPO 2306/2309 BKN015
     FM230900 14005KT P6SM SCT025 BKN050
     FM231500 16010KT P6SM VCSH BKN050
     FM240300 08010KT P6SM VCTS BKN040CB PROB30 2403/2406 36025G35KT
      5SM TSRA BKN025CB=

USA.gov is the U.S. government's official web portal to all federal, state and local government web resources and services.